createdAt,value
2023-03-29T00:00:36.414Z,100677.00
2023-03-29T00:05:57.889Z,100677.20
2023-03-29T00:11:02.061Z,100679.40
2023-03-29T00:16:06.516Z,100681.00
2023-03-29T00:21:10.695Z,100685.00
2023-03-29T00:26:14.265Z,100680.60
2023-03-29T00:31:18.961Z,100685.40
2023-03-29T00:36:23.704Z,100686.80
2023-03-29T00:41:27.545Z,100682.60
2023-03-29T00:46:32.621Z,100679.40
2023-03-29T00:51:41.700Z,100677.00
2023-03-29T00:56:50.354Z,100672.60
2023-03-29T01:02:03.705Z,100679.20
2023-03-29T01:07:31.254Z,100673.40
2023-03-29T01:12:47.202Z,100678.00
2023-03-29T01:17:53.993Z,100675.20
2023-03-29T01:23:40.610Z,100667.80
2023-03-29T01:29:22.565Z,100661.60
2023-03-29T01:34:51.988Z,100670.00
2023-03-29T01:39:55.670Z,100666.80
2023-03-29T01:45:20.274Z,100662.00
2023-03-29T01:50:44.683Z,100664.20
2023-03-29T01:55:57.278Z,100663.80
2023-03-29T02:01:10.224Z,100662.00
2023-03-29T02:06:21.740Z,100666.20
2023-03-29T02:11:29.669Z,100677.80
2023-03-29T02:16:39.378Z,100672.80
2023-03-29T02:22:02.248Z,100673.60
2023-03-29T02:27:06.370Z,100674.20
2023-03-29T02:32:21.696Z,100672.80
2023-03-29T02:37:30.577Z,100676.80
2023-03-29T02:42:35.556Z,100679.20
2023-03-29T02:47:47.760Z,100676.60
2023-03-29T02:53:02.057Z,100671.80
2023-03-29T02:58:08.801Z,100673.40
2023-03-29T03:03:15.893Z,100672.40
2023-03-29T03:08:20.219Z,100681.20
2023-03-29T03:13:23.765Z,100672.40
2023-03-29T03:18:28.153Z,100669.20
2023-03-29T03:23:32.327Z,100668.40
2023-03-29T03:28:35.933Z,100665.80
2023-03-29T03:33:41.406Z,100672.20
2023-03-29T03:38:45.585Z,100679.00
2023-03-29T03:43:49.410Z,100681.60
2023-03-29T03:48:53.095Z,100686.60
2023-03-29T03:53:56.650Z,100679.00
2023-03-29T03:59:00.202Z,100688.80
2023-03-29T04:04:04.907Z,100681.80
2023-03-29T04:09:09.742Z,100683.20
2023-03-29T04:14:13.297Z,100687.40
2023-03-29T04:19:17.191Z,100680.20
2023-03-29T04:24:20.928Z,100684.00
2023-03-29T04:29:24.613Z,100681.40
2023-03-29T04:34:28.357Z,100682.00
2023-03-29T04:39:34.387Z,100679.80
2023-03-29T04:44:41.806Z,100689.00
2023-03-29T04:49:46.202Z,100687.40
2023-03-29T04:54:50.145Z,100684.80
2023-03-29T04:59:54.174Z,100686.60
2023-03-29T05:04:59.885Z,100689.40
2023-03-29T05:10:08.464Z,100694.40
2023-03-29T05:15:13.946Z,100681.00
2023-03-29T05:20:19.034Z,100686.80
2023-03-29T05:25:23.617Z,100691.40
2023-03-29T05:30:27.237Z,100690.00
2023-03-29T05:35:32.418Z,100691.60
2023-03-29T05:40:36.221Z,100690.20
2023-03-29T05:45:39.918Z,100695.00
2023-03-29T05:50:52.643Z,100699.80
2023-03-29T05:55:56.550Z,100693.20
2023-03-29T06:01:00.909Z,100690.40
2023-03-29T06:06:05.722Z,100692.00
2023-03-29T06:11:13.663Z,100694.80
2023-03-29T06:16:17.315Z,100699.40
2023-03-29T06:21:22.336Z,100701.20
2023-03-29T06:26:28.437Z,100702.40
2023-03-29T06:31:32.331Z,100705.40
2023-03-29T06:36:36.000Z,100700.40
2023-03-29T06:41:39.813Z,100703.40
2023-03-29T06:46:44.289Z,100702.00
2023-03-29T06:51:49.206Z,100705.00
2023-03-29T06:56:55.117Z,100713.60
2023-03-29T07:01:59.058Z,100711.40
2023-03-29T07:07:03.938Z,100712.20
2023-03-29T07:12:09.289Z,100709.00
2023-03-29T07:17:13.723Z,100712.40
2023-03-29T07:22:17.416Z,100706.20
2023-03-29T07:27:21.167Z,100704.00
2023-03-29T07:32:25.084Z,100703.20
2023-03-29T07:37:28.795Z,100705.60
2023-03-29T07:42:32.423Z,100704.20
2023-03-29T07:47:36.727Z,100709.00
2023-03-29T07:52:41.226Z,100701.40
2023-03-29T07:57:45.109Z,100703.60
2023-03-29T08:02:52.789Z,100702.60
2023-03-29T08:07:56.771Z,100701.80
2023-03-29T08:13:01.389Z,100700.00
2023-03-29T08:18:07.765Z,100705.80
2023-03-29T08:23:11.740Z,100697.80
2023-03-29T08:28:15.386Z,100703.60
2023-03-29T08:33:19.721Z,100705.00
2023-03-29T08:38:23.429Z,100700.60
2023-03-29T08:43:51.898Z,100704.00
2023-03-29T08:49:03.293Z,100703.80
2023-03-29T08:54:17.561Z,100692.80
2023-03-29T08:59:30.156Z,100692.20
2023-03-29T09:04:36.872Z,100690.60
2023-03-29T09:09:43.158Z,100689.60
2023-03-29T09:15:11.966Z,100691.20
2023-03-29T09:20:37.732Z,100683.60
2023-03-29T09:26:10.383Z,100676.20
2023-03-29T09:31:23.245Z,100676.40
2023-03-29T09:36:46.808Z,100670.40
2023-03-29T09:42:00.127Z,100675.80
2023-03-29T09:47:17.617Z,100672.00
2023-03-29T09:52:21.784Z,100670.60
2023-03-29T09:57:27.729Z,100667.00
2023-03-29T10:02:32.838Z,100666.20
2023-03-29T10:07:46.653Z,100662.20
2023-03-29T10:12:57.258Z,100658.60
2023-03-29T10:18:12.132Z,100662.60
2023-03-29T10:23:19.089Z,100655.80
2023-03-29T10:28:23.341Z,100653.60
2023-03-29T10:33:33.499Z,100650.60
2023-03-29T10:38:38.515Z,100651.40
2023-03-29T10:43:51.246Z,100647.40
2023-03-29T10:49:10.742Z,100638.40
2023-03-29T10:54:20.699Z,100637.20
2023-03-29T10:59:28.832Z,100631.20
2023-03-29T11:05:31.337Z,100626.60
2023-03-29T11:11:01.154Z,100621.40
2023-03-29T11:16:29.095Z,100620.20
2023-03-29T11:22:05.791Z,100615.80
2023-03-29T11:27:51.544Z,100607.80
2023-03-29T11:33:46.463Z,100601.00
2023-03-29T11:39:45.405Z,100597.80
2023-03-29T11:44:55.213Z,100592.80
2023-03-29T11:50:28.980Z,100594.40
2023-03-29T11:55:38.415Z,100590.40
2023-03-29T12:01:04.690Z,100588.20
2023-03-29T12:06:15.843Z,100574.20
2023-03-29T12:11:49.178Z,100574.40
2023-03-29T12:17:05.715Z,100568.80
2023-03-29T12:22:10.120Z,100567.40
2023-03-29T12:27:47.789Z,100565.40
2023-03-29T12:33:03.509Z,100561.20
2023-03-29T12:38:37.740Z,100558.20
2023-03-29T12:43:43.817Z,100545.60
2023-03-29T12:48:58.115Z,100543.80
2023-03-29T12:54:16.225Z,100537.20
2023-03-29T12:59:45.489Z,100542.00
2023-03-29T13:05:00.590Z,100538.60
2023-03-29T13:10:38.282Z,100538.60
2023-03-29T13:15:45.343Z,100536.20
2023-03-29T13:21:30.193Z,100532.60
2023-03-29T13:27:15.748Z,100531.20
2023-03-29T13:32:41.580Z,100526.00
2023-03-29T13:38:07.611Z,100514.40
2023-03-29T13:43:31.397Z,100518.80
2023-03-29T13:48:38.012Z,100510.00
2023-03-29T13:53:52.111Z,100509.80
2023-03-29T13:59:25.843Z,100505.80
2023-03-29T14:04:49.344Z,100499.80
2023-03-29T14:09:57.230Z,100504.20
2023-03-29T14:15:07.082Z,100504.20
2023-03-29T14:20:16.434Z,100492.80
2023-03-29T14:25:23.320Z,100496.80
2023-03-29T14:30:29.810Z,100495.20
2023-03-29T14:35:33.971Z,100495.60
2023-03-29T14:40:38.884Z,100478.60
2023-03-29T14:45:42.917Z,100470.20
2023-03-29T14:50:47.871Z,100439.20
2023-03-29T14:55:53.950Z,100453.00
2023-03-29T15:00:58.358Z,100474.80
2023-03-29T15:06:05.253Z,100465.40
2023-03-29T15:11:27.887Z,100453.60
2023-03-29T15:16:33.187Z,100461.20
2023-03-29T15:21:37.100Z,100470.60
2023-03-29T15:26:41.417Z,100464.80
2023-03-29T15:31:59.384Z,100457.20
2023-03-29T15:37:04.635Z,100450.40
2023-03-29T15:42:10.172Z,100446.40
2023-03-29T15:47:14.132Z,100440.20
2023-03-29T15:52:18.086Z,100428.20
2023-03-29T15:57:22.326Z,100428.60
2023-03-29T16:02:26.348Z,100423.80
2023-03-29T16:07:30.493Z,100423.80
2023-03-29T16:12:36.101Z,100423.00
2023-03-29T16:17:39.944Z,100421.80
2023-03-29T16:22:43.977Z,100413.60
2023-03-29T16:27:47.625Z,100409.00
2023-03-29T16:32:52.075Z,100402.80
2023-03-29T16:37:56.268Z,100397.40
2023-03-29T16:43:00.500Z,100391.40
2023-03-29T16:48:05.600Z,100390.00
2023-03-29T16:53:10.660Z,100381.20
2023-03-29T16:58:15.781Z,100379.60
2023-03-29T17:03:20.428Z,100383.60
2023-03-29T17:08:24.197Z,100383.40
2023-03-29T17:13:28.449Z,100376.60
2023-03-29T17:18:32.346Z,100375.80
2023-03-29T17:23:36.545Z,100382.00
2023-03-29T17:28:41.296Z,100376.20
2023-03-29T17:33:45.693Z,100376.40
2023-03-29T17:38:51.316Z,100374.00
2023-03-29T17:43:54.843Z,100368.40
2023-03-29T17:49:01.830Z,100373.40
2023-03-29T17:54:06.540Z,100373.60
2023-03-29T17:59:12.880Z,100370.20
2023-03-29T18:04:17.273Z,100369.80
2023-03-29T18:09:21.274Z,100367.80
2023-03-29T18:14:25.083Z,100368.60
2023-03-29T18:19:29.221Z,100376.40
2023-03-29T18:24:34.126Z,100369.20
2023-03-29T18:29:38.250Z,100370.20
2023-03-29T18:34:41.798Z,100367.60
2023-03-29T18:39:51.958Z,100363.00
2023-03-29T18:44:56.245Z,100361.80
2023-03-29T18:50:04.668Z,100367.40
2023-03-29T18:55:24.474Z,100366.00
2023-03-29T19:01:04.123Z,100366.40
2023-03-29T19:10:45.270Z,100359.80
2023-03-29T19:15:52.253Z,100355.60
2023-03-29T19:20:59.502Z,100346.00
2023-03-29T19:26:14.127Z,100345.00
2023-03-29T19:31:21.006Z,100337.20
2023-03-29T19:36:25.113Z,100334.60
2023-03-29T19:41:29.136Z,100328.80
2023-03-29T19:46:33.616Z,100322.80
2023-03-29T19:51:39.857Z,100321.20
2023-03-29T19:56:44.519Z,100327.80
2023-03-29T20:01:51.250Z,100319.60
2023-03-29T20:06:55.499Z,100315.20
2023-03-29T20:12:00.243Z,100312.80
2023-03-29T20:17:04.828Z,100305.20
2023-03-29T20:22:09.042Z,100307.60
2023-03-29T20:27:12.674Z,100304.40
2023-03-29T20:32:16.620Z,100285.80
2023-03-29T20:37:23.324Z,100287.80
2023-03-29T20:42:28.974Z,100286.40
2023-03-29T20:47:42.916Z,100287.00
2023-03-29T20:52:47.650Z,100284.40
2023-03-29T20:58:06.751Z,100275.00
2023-03-29T21:03:11.521Z,100261.60
2023-03-29T21:08:17.925Z,100252.40
2023-03-29T21:13:21.941Z,100250.20
2023-03-29T21:18:25.673Z,100239.40
2023-03-29T21:23:29.197Z,100228.60
2023-03-29T21:28:33.359Z,100221.00
2023-03-29T21:33:37.047Z,100217.80
2023-03-29T21:38:40.779Z,100210.60
2023-03-29T21:43:44.667Z,100205.80
2023-03-29T21:48:48.273Z,100196.40
2023-03-29T21:53:52.041Z,100206.00
2023-03-29T21:58:56.117Z,100198.20
2023-03-29T22:03:59.754Z,100204.00
2023-03-29T22:09:03.665Z,100203.40
2023-03-29T22:14:08.661Z,100201.60
2023-03-29T22:19:13.213Z,100191.20
2023-03-29T22:24:17.564Z,100188.40
2023-03-29T22:29:21.196Z,100194.40
2023-03-29T22:34:25.303Z,100189.40
2023-03-29T22:39:30.151Z,100178.00
2023-03-29T22:44:34.397Z,100173.20
2023-03-29T22:49:37.942Z,100166.60
2023-03-29T22:54:41.587Z,100160.00
2023-03-29T22:59:45.221Z,100160.60
2023-03-29T23:04:49.380Z,100156.00
2023-03-29T23:09:53.156Z,100149.80
2023-03-29T23:14:57.318Z,100148.60
2023-03-29T23:20:02.309Z,100149.80
2023-03-29T23:25:06.729Z,100145.00
2023-03-29T23:30:12.114Z,100143.60
2023-03-29T23:35:16.776Z,100135.60
2023-03-29T23:40:21.157Z,100129.40
2023-03-29T23:45:26.975Z,100126.40
2023-03-29T23:50:30.653Z,100118.80
2023-03-29T23:55:34.632Z,100115.60
